sensor_id;sensor_type;location;lat;lon;timestamp;pressure;altitude;pressure_sealevel;temperature;humidity
49835;BME280;35729;52.090;13.162;2023-02-16T00:01:15;101838.72;;;2.03;88.13
49835;BME280;35729;52.090;13.162;2023-02-16T00:03:43;101833.53;;;2.03;88.11
49835;BME280;35729;52.090;13.162;2023-02-16T00:06:12;101830.09;;;2.03;88.13
49835;BME280;35729;52.090;13.162;2023-02-16T00:08:45;101833.53;;;2.03;88.32
49835;BME280;35729;52.090;13.162;2023-02-16T00:11:17;101827.50;;;2.03;88.16
49835;BME280;35729;52.090;13.162;2023-02-16T00:14:02;101830.09;;;2.03;88.19
49835;BME280;35729;52.090;13.162;2023-02-16T00:16:30;101834.41;;;2.02;87.83
49835;BME280;35729;52.090;13.162;2023-02-16T00:18:59;101832.63;;;2.01;87.84
49835;BME280;35729;52.090;13.162;2023-02-16T00:21:27;101828.28;;;2.00;88.02
49835;BME280;35729;52.090;13.162;2023-02-16T00:23:56;101832.47;;;1.97;87.94
49835;BME280;35729;52.090;13.162;2023-02-16T00:26:26;101834.13;;;1.94;88.00
49835;BME280;35729;52.090;13.162;2023-02-16T00:28:56;101836.69;;;1.93;88.19
49835;BME280;35729;52.090;13.162;2023-02-16T00:31:28;101834.91;;;1.92;88.07
49835;BME280;35729;52.090;13.162;2023-02-16T00:33:59;101840.06;;;1.90;87.86
49835;BME280;35729;52.090;13.162;2023-02-16T00:36:32;101834.78;;;1.87;88.03
49835;BME280;35729;52.090;13.162;2023-02-16T00:39:00;101832.13;;;1.86;88.22
49835;BME280;35729;52.090;13.162;2023-02-16T00:41:28;101833.00;;;1.85;88.14
49835;BME280;35729;52.090;13.162;2023-02-16T00:44:14;101836.38;;;1.82;88.31
49835;BME280;35729;52.090;13.162;2023-02-16T00:46:46;101844.06;;;1.81;88.19
49835;BME280;35729;52.090;13.162;2023-02-16T00:49:15;101839.63;;;1.76;88.12
49835;BME280;35729;52.090;13.162;2023-02-16T00:51:45;101842.19;;;1.76;88.23
49835;BME280;35729;52.090;13.162;2023-02-16T00:54:13;101840.34;;;1.72;88.12
49835;BME280;35729;52.090;13.162;2023-02-16T00:56:42;101836.81;;;1.70;88.07
49835;BME280;35729;52.090;13.162;2023-02-16T00:59:15;101835.03;;;1.68;88.13
49835;BME280;35729;52.090;13.162;2023-02-16T01:01:48;101834.94;;;1.65;88.33
49835;BME280;35729;52.090;13.162;2023-02-16T01:04:19;101825.38;;;1.62;88.32
49835;BME280;35729;52.090;13.162;2023-02-16T01:06:49;101826.16;;;1.59;88.33
49835;BME280;35729;52.090;13.162;2023-02-16T01:09:30;101827.00;;;1.60;88.32
49835;BME280;35729;52.090;13.162;2023-02-16T01:12:15;101826.16;;;1.59;88.50
49835;BME280;35729;52.090;13.162;2023-02-16T01:14:46;101830.34;;;1.56;88.07
49835;BME280;35729;52.090;13.162;2023-02-16T01:17:20;101827.72;;;1.54;87.83
49835;BME280;35729;52.090;13.162;2023-02-16T01:19:48;101840.56;;;1.53;88.29
49835;BME280;35729;52.090;13.162;2023-02-16T01:22:17;101837.94;;;1.51;88.28
49835;BME280;35729;52.090;13.162;2023-02-16T01:24:45;101830.97;;;1.49;88.28
49835;BME280;35729;52.090;13.162;2023-02-16T01:27:14;101831.72;;;1.46;88.38
49835;BME280;35729;52.090;13.162;2023-02-16T01:29:42;101826.53;;;1.44;88.65
49835;BME280;35729;52.090;13.162;2023-02-16T01:32:11;101833.34;;;1.42;88.43
49835;BME280;35729;52.090;13.162;2023-02-16T01:34:42;101831.56;;;1.41;88.64
49835;BME280;35729;52.090;13.162;2023-02-16T01:37:14;101829.84;;;1.40;88.75
49835;BME280;35729;52.090;13.162;2023-02-16T01:39:44;101827.19;;;1.39;88.66
49835;BME280;35729;52.090;13.162;2023-02-16T01:42:22;101818.50;;;1.37;88.83
49835;BME280;35729;52.090;13.162;2023-02-16T01:45:02;101818.44;;;1.35;89.18
49835;BME280;35729;52.090;13.162;2023-02-16T01:47:41;101821.03;;;1.35;89.02
49835;BME280;35729;52.090;13.162;2023-02-16T01:50:18;101829.63;;;1.34;89.51
49835;BME280;35729;52.090;13.162;2023-02-16T01:52:51;101827.03;;;1.34;89.19
49835;BME280;35729;52.090;13.162;2023-02-16T01:55:24;101820.97;;;1.34;89.35
49835;BME280;35729;52.090;13.162;2023-02-16T01:57:57;101818.34;;;1.32;89.21
49835;BME280;35729;52.090;13.162;2023-02-16T02:00:30;101815.66;;;1.29;89.51
49835;BME280;35729;52.090;13.162;2023-02-16T02:03:18;101810.44;;;1.27;89.63
49835;BME280;35729;52.090;13.162;2023-02-16T02:06:02;101817.31;;;1.27;89.71
49835;BME280;35729;52.090;13.162;2023-02-16T02:08:35;101811.28;;;1.26;89.58
49835;BME280;35729;52.090;13.162;2023-02-16T02:11:08;101808.63;;;1.25;89.66
49835;BME280;35729;52.090;13.162;2023-02-16T02:13:44;101797.38;;;1.23;89.74
49835;BME280;35729;52.090;13.162;2023-02-16T02:16:16;101799.88;;;1.21;89.73
49835;BME280;35729;52.090;13.162;2023-02-16T02:18:45;101804.19;;;1.21;89.69
49835;BME280;35729;52.090;13.162;2023-02-16T02:21:36;101800.66;;;1.19;89.74
49835;BME280;35729;52.090;13.162;2023-02-16T02:27:29;101791.16;;;1.18;89.62
49835;BME280;35729;52.090;13.162;2023-02-16T02:30:13;101792.81;;;1.16;89.78
49835;BME280;35729;52.090;13.162;2023-02-16T02:33:05;101791.03;;;1.14;90.04
49835;BME280;35729;52.090;13.162;2023-02-16T02:35:42;101796.22;;;1.14;89.72
49835;BME280;35729;52.090;13.162;2023-02-16T02:38:17;101793.59;;;1.13;89.56
49835;BME280;35729;52.090;13.162;2023-02-16T02:40:54;101796.16;;;1.13;89.81
49835;BME280;35729;52.090;13.162;2023-02-16T02:43:33;101794.34;;;1.10;89.77
49835;BME280;35729;52.090;13.162;2023-02-16T02:46:07;101790.94;;;1.11;89.68
49835;BME280;35729;52.090;13.162;2023-02-16T02:48:38;101788.19;;;1.07;89.93
49835;BME280;35729;52.090;13.162;2023-02-16T02:51:11;101792.59;;;1.09;89.58
49835;BME280;35729;52.090;13.162;2023-02-16T02:53:54;101795.13;;;1.08;89.56
49835;BME280;35729;52.090;13.162;2023-02-16T02:56:36;101797.69;;;1.06;89.53
49835;BME280;35729;52.090;13.162;2023-02-16T02:59:22;101793.19;;;1.02;89.79
49835;BME280;35729;52.090;13.162;2023-02-16T03:02:04;101790.69;;;1.04;89.72
49835;BME280;35729;52.090;13.162;2023-02-16T03:04:32;101786.31;;;1.01;89.62
49835;BME280;35729;52.090;13.162;2023-02-16T03:07:02;101782.78;;;0.99;89.83
49835;BME280;35729;52.090;13.162;2023-02-16T03:09:32;101779.25;;;0.97;89.79
49835;BME280;35729;52.090;13.162;2023-02-16T03:12:02;101775.75;;;0.95;89.81
49835;BME280;35729;52.090;13.162;2023-02-16T03:14:50;101783.34;;;0.90;89.66
49835;BME280;35729;52.090;13.162;2023-02-16T03:17:24;101784.16;;;0.89;89.56
49835;BME280;35729;52.090;13.162;2023-02-16T03:20:11;101784.94;;;0.87;89.81
49835;BME280;35729;52.090;13.162;2023-02-16T03:22:53;101779.72;;;0.85;89.82
49835;BME280;35729;52.090;13.162;2023-02-16T03:25:36;101783.06;;;0.83;89.74
49835;BME280;35729;52.090;13.162;2023-02-16T03:28:20;101785.59;;;0.81;89.73
49835;BME280;35729;52.090;13.162;2023-02-16T03:31:05;101783.78;;;0.78;89.52
49835;BME280;35729;52.090;13.162;2023-02-16T03:33:35;101791.47;;;0.77;89.60
49835;BME280;35729;52.090;13.162;2023-02-16T03:36:04;101785.38;;;0.75;89.82
49835;BME280;35729;52.090;13.162;2023-02-16T03:38:34;101782.69;;;0.72;89.87
49835;BME280;35729;52.090;13.162;2023-02-16T03:41:04;101787.88;;;0.73;89.67
49835;BME280;35729;52.090;13.162;2023-02-16T03:43:33;101789.56;;;0.71;89.89
49835;BME280;35729;52.090;13.162;2023-02-16T03:46:04;101786.09;;;0.71;89.83
49835;BME280;35729;52.090;13.162;2023-02-16T03:48:32;101786.94;;;0.70;90.07
49835;BME280;35729;52.090;13.162;2023-02-16T03:51:01;101787.75;;;0.69;90.00
49835;BME280;35729;52.090;13.162;2023-02-16T03:53:29;101792.09;;;0.70;90.08
49835;BME280;35729;52.090;13.162;2023-02-16T03:55:58;101789.44;;;0.68;89.75
49835;BME280;35729;52.090;13.162;2023-02-16T03:58:26;101788.56;;;0.68;89.95
49835;BME280;35729;52.090;13.162;2023-02-16T04:00:55;101790.22;;;0.65;90.04
49835;BME280;35729;52.090;13.162;2023-02-16T04:03:26;101791.09;;;0.66;90.02
49835;BME280;35729;52.090;13.162;2023-02-16T04:05:54;101788.47;;;0.64;89.79
49835;BME280;35729;52.090;13.162;2023-02-16T04:08:23;101796.22;;;0.64;89.87
49835;BME280;35729;52.090;13.162;2023-02-16T04:10:51;101796.97;;;0.62;90.02
49835;BME280;35729;52.090;13.162;2023-02-16T04:13:22;101802.13;;;0.62;89.99
49835;BME280;35729;52.090;13.162;2023-02-16T04:15:48;101795.22;;;0.61;90.12
49835;BME280;35729;52.090;13.162;2023-02-16T04:18:16;101796.03;;;0.60;89.86
49835;BME280;35729;52.090;13.162;2023-02-16T04:20:47;101792.53;;;0.58;89.94
49835;BME280;35729;52.090;13.162;2023-02-16T04:23:17;101788.16;;;0.57;90.13
49835;BME280;35729;52.090;13.162;2023-02-16T04:25:45;101793.34;;;0.57;89.99
49835;BME280;35729;52.090;13.162;2023-02-16T04:28:14;101792.41;;;0.55;89.75
49835;BME280;35729;52.090;13.162;2023-02-16T04:30:42;101786.34;;;0.54;89.87
49835;BME280;35729;52.090;13.162;2023-02-16T04:33:11;101794.06;;;0.53;90.10
49835;BME280;35729;52.090;13.162;2023-02-16T04:35:39;101787.13;;;0.52;89.96
49835;BME280;35729;52.090;13.162;2023-02-16T04:38:10;101784.50;;;0.50;90.15
49835;BME280;35729;52.090;13.162;2023-02-16T04:40:38;101781.06;;;0.50;89.97
49835;BME280;35729;52.090;13.162;2023-02-16T04:43:07;101779.28;;;0.48;90.10
49835;BME280;35729;52.090;13.162;2023-02-16T04:45:35;101774.06;;;0.47;90.07
49835;BME280;35729;52.090;13.162;2023-02-16T04:48:04;101772.31;;;0.46;90.21
49835;BME280;35729;52.090;13.162;2023-02-16T04:50:33;101773.16;;;0.46;90.22
49835;BME280;35729;52.090;13.162;2023-02-16T04:53:01;101770.53;;;0.45;90.00
49835;BME280;35729;52.090;13.162;2023-02-16T04:55:32;101767.91;;;0.43;89.99
49835;BME280;35729;52.090;13.162;2023-02-16T04:58:01;101761.84;;;0.43;90.41
49835;BME280;35729;52.090;13.162;2023-02-16T05:00:29;101769.59;;;0.43;90.07
49835;BME280;35729;52.090;13.162;2023-02-16T05:02:57;101768.72;;;0.42;89.96
49835;BME280;35729;52.090;13.162;2023-02-16T05:05:26;101765.28;;;0.42;89.98
49835;BME280;35729;52.090;13.162;2023-02-16T05:07:56;101767.78;;;0.40;89.92
49835;BME280;35729;52.090;13.162;2023-02-16T05:10:24;101767.72;;;0.39;90.29
49835;BME280;35729;52.090;13.162;2023-02-16T05:12:55;101766.69;;;0.34;90.05
49835;BME280;35729;52.090;13.162;2023-02-16T05:15:36;101774.47;;;0.35;90.09
49835;BME280;35729;52.090;13.162;2023-02-16T05:18:04;101775.31;;;0.34;90.40
49835;BME280;35729;52.090;13.162;2023-02-16T05:20:33;101776.16;;;0.33;90.44
49835;BME280;35729;52.090;13.162;2023-02-16T05:23:14;101770.91;;;0.31;90.27
49835;BME280;35729;52.090;13.162;2023-02-16T05:25:42;101775.19;;;0.31;90.56
49835;BME280;35729;52.090;13.162;2023-02-16T05:28:13;101788.00;;;0.28;90.47
49835;BME280;35729;52.090;13.162;2023-02-16T05:30:41;101793.09;;;0.26;90.26
49835;BME280;35729;52.090;13.162;2023-02-16T05:33:10;101786.13;;;0.24;90.33
49835;BME280;35729;52.090;13.162;2023-02-16T05:35:39;101792.03;;;0.21;90.63
49835;BME280;35729;52.090;13.162;2023-02-16T05:38:07;101799.72;;;0.20;90.49
49835;BME280;35729;52.090;13.162;2023-02-16T05:40:36;101797.09;;;0.18;90.73
49835;BME280;35729;52.090;13.162;2023-02-16T05:43:04;101794.38;;;0.15;90.88
49835;BME280;35729;52.090;13.162;2023-02-16T05:45:37;101802.97;;;0.14;90.67
49835;BME280;35729;52.090;13.162;2023-02-16T05:48:05;101796.91;;;0.13;90.76
49835;BME280;35729;52.090;13.162;2023-02-16T05:50:34;101787.34;;;0.11;90.84
49835;BME280;35729;52.090;13.162;2023-02-16T05:53:02;101798.53;;;0.11;90.78
49835;BME280;35729;52.090;13.162;2023-02-16T05:55:31;101803.66;;;0.10;91.04
49835;BME280;35729;52.090;13.162;2023-02-16T05:57:59;101812.16;;;0.07;91.04
49835;BME280;35729;52.090;13.162;2023-02-16T06:00:28;101800.78;;;0.02;91.12
49835;BME280;35729;52.090;13.162;2023-02-16T06:03:00;101806.84;;;0.03;91.13
49835;BME280;35729;52.090;13.162;2023-02-16T06:05:29;101806.91;;;0.04;90.92
49835;BME280;35729;52.090;13.162;2023-02-16T06:07:57;101818.84;;;0.02;91.13
49835;BME280;35729;52.090;13.162;2023-02-16T06:10:26;101823.97;;;0.01;91.27
49835;BME280;35729;52.090;13.162;2023-02-16T06:12:54;101820.44;;;-0.02;91.36
49835;BME280;35729;52.090;13.162;2023-02-16T06:15:23;101813.50;;;-0.03;91.22
49835;BME280;35729;52.090;13.162;2023-02-16T06:17:51;101815.22;;;-0.03;91.22
49835;BME280;35729;52.090;13.162;2023-02-16T06:20:22;101815.22;;;-0.03;91.25
49835;BME280;35729;52.090;13.162;2023-02-16T06:22:51;101819.41;;;-0.05;91.25
49835;BME280;35729;52.090;13.162;2023-02-16T06:25:19;101830.63;;;-0.05;91.57
49835;BME280;35729;52.090;13.162;2023-02-16T06:27:47;101808.88;;;-0.11;91.40
49835;BME280;35729;52.090;13.162;2023-02-16T06:30:17;101823.72;;;-0.06;91.52
49835;BME280;35729;52.090;13.162;2023-02-16T06:32:46;101829.69;;;-0.07;91.53
49835;BME280;35729;52.090;13.162;2023-02-16T06:35:15;101822.84;;;-0.06;91.62
49835;BME280;35729;52.090;13.162;2023-02-16T06:37:46;101828.00;;;-0.06;91.60
49835;BME280;35729;52.090;13.162;2023-02-16T06:40:16;101815.16;;;-0.05;91.63
49835;BME280;35729;52.090;13.162;2023-02-16T06:42:44;101815.22;;;-0.03;91.65
49835;BME280;35729;52.090;13.162;2023-02-16T06:45:19;101816.97;;;-0.02;91.84
49835;BME280;35729;52.090;13.162;2023-02-16T06:47:48;101812.69;;;-0.02;91.83
49835;BME280;35729;52.090;13.162;2023-02-16T06:50:17;101815.25;;;-0.02;91.57
49835;BME280;35729;52.090;13.162;2023-02-16T06:52:48;101813.59;;;-0.01;91.82
49835;BME280;35729;52.090;13.162;2023-02-16T06:55:23;101817.94;;;0.00;91.63
49835;BME280;35729;52.090;13.162;2023-02-16T06:57:51;101818.84;;;0.02;91.70
49835;BME280;35729;52.090;13.162;2023-02-16T07:00:20;101813.75;;;0.04;91.63
49835;BME280;35729;52.090;13.162;2023-02-16T07:02:48;101812.94;;;0.05;91.92
49835;BME280;35729;52.090;13.162;2023-02-16T07:05:17;101813.06;;;0.08;91.66
49835;BME280;35729;52.090;13.162;2023-02-16T07:07:48;101813.16;;;0.11;91.49
49835;BME280;35729;52.090;13.162;2023-02-16T07:10:17;101802.91;;;0.12;91.46
49835;BME280;35729;52.090;13.162;2023-02-16T07:12:47;101810.78;;;0.15;91.48
49835;BME280;35729;52.090;13.162;2023-02-16T07:15:15;101804.91;;;0.20;91.52
49835;BME280;35729;52.090;13.162;2023-02-16T07:17:44;101809.28;;;0.22;91.21
49835;BME280;35729;52.090;13.162;2023-02-16T07:20:12;101807.66;;;0.24;91.16
49835;BME280;35729;52.090;13.162;2023-02-16T07:22:42;101802.59;;;0.27;91.38
49835;BME280;35729;52.090;13.162;2023-02-16T07:25:13;101809.63;;;0.31;91.31
49835;BME280;35729;52.090;13.162;2023-02-16T07:27:41;101814.09;;;0.36;91.08
49835;BME280;35729;52.090;13.162;2023-02-16T07:30:11;101809.03;;;0.39;91.18
49835;BME280;35729;52.090;13.162;2023-02-16T07:32:40;101814.34;;;0.42;90.93
49835;BME280;35729;52.090;13.162;2023-02-16T07:35:09;101814.44;;;0.45;91.05
49835;BME280;35729;52.090;13.162;2023-02-16T07:37:37;101810.28;;;0.48;91.18
49835;BME280;35729;52.090;13.162;2023-02-16T07:40:07;101805.19;;;0.52;90.91
49835;BME280;35729;52.090;13.162;2023-02-16T07:42:38;101809.78;;;0.59;90.80
49835;BME280;35729;52.090;13.162;2023-02-16T07:45:08;101811.63;;;0.63;90.75
49835;BME280;35729;52.090;13.162;2023-02-16T07:47:36;101815.25;;;0.68;90.45
49835;BME280;35729;52.090;13.162;2023-02-16T07:50:06;101806.81;;;0.72;90.26
49835;BME280;35729;52.090;13.162;2023-02-16T07:52:34;101805.28;;;0.77;90.36
49835;BME280;35729;52.090;13.162;2023-02-16T07:55:04;101809.78;;;0.83;90.05
49835;BME280;35729;52.090;13.162;2023-02-16T07:57:33;101804.00;;;0.90;90.32
49835;BME280;35729;52.090;13.162;2023-02-16T08:00:05;101803.31;;;0.96;90.31
49835;BME280;35729;52.090;13.162;2023-02-16T08:02:34;101802.72;;;1.03;89.89
49835;BME280;35729;52.090;13.162;2023-02-16T08:05:03;101802.94;;;1.09;89.42
49835;BME280;35729;52.090;13.162;2023-02-16T08:07:31;101798.78;;;1.14;89.46
49835;BME280;35729;52.090;13.162;2023-02-16T08:10:00;101802.41;;;1.20;89.59
49835;BME280;35729;52.090;13.162;2023-02-16T08:12:30;101800.03;;;1.26;89.46
49835;BME280;35729;52.090;13.162;2023-02-16T08:14:58;101796.72;;;1.30;89.62
49835;BME280;35729;52.090;13.162;2023-02-16T08:17:32;101800.34;;;1.35;89.71
49835;BME280;35729;52.090;13.162;2023-02-16T08:20:02;101787.47;;;1.37;89.64
49835;BME280;35729;52.090;13.162;2023-02-16T08:22:31;101794.50;;;1.41;89.63
49835;BME280;35729;52.090;13.162;2023-02-16T08:24:59;101810.97;;;1.43;89.52
49835;BME280;35729;52.090;13.162;2023-02-16T08:27:29;101815.22;;;1.42;88.25
49835;BME280;35729;52.090;13.162;2023-02-16T08:29:58;101817.94;;;1.45;88.85
49835;BME280;35729;52.090;13.162;2023-02-16T08:32:26;101803.31;;;1.48;88.53
49835;BME280;35729;52.090;13.162;2023-02-16T08:34:58;101806.84;;;1.50;89.06
49835;BME280;35729;52.090;13.162;2023-02-16T08:37:26;101807.72;;;1.50;88.69
49835;BME280;35729;52.090;13.162;2023-02-16T08:39:55;101808.66;;;1.52;88.11
49835;BME280;35729;52.090;13.162;2023-02-16T08:42:25;101808.72;;;1.54;88.70
49835;BME280;35729;52.090;13.162;2023-02-16T08:44:53;101806.22;;;1.57;88.66
49835;BME280;35729;52.090;13.162;2023-02-16T08:47:23;101815.81;;;1.59;88.98
49835;BME280;35729;52.090;13.162;2023-02-16T08:49:51;101817.69;;;1.65;88.87
49835;BME280;35729;52.090;13.162;2023-02-16T08:52:29;101806.69;;;1.71;88.85
49835;BME280;35729;52.090;13.162;2023-02-16T08:54:57;101803.38;;;1.76;88.24
49835;BME280;35729;52.090;13.162;2023-02-16T08:57:26;101807.13;;;1.85;88.48
49835;BME280;35729;52.090;13.162;2023-02-16T08:59:54;101798.69;;;1.92;88.47
49835;BME280;35729;52.090;13.162;2023-02-16T09:02:35;101799.81;;;2.00;88.23
49835;BME280;35729;52.090;13.162;2023-02-16T09:05:04;101796.63;;;2.09;88.16
49835;BME280;35729;52.090;13.162;2023-02-16T09:07:35;101799.44;;;2.17;87.30
49835;BME280;35729;52.090;13.162;2023-02-16T09:10:04;101791.09;;;2.27;87.49
49835;BME280;35729;52.090;13.162;2023-02-16T09:12:33;101792.25;;;2.37;86.99
49835;BME280;35729;52.090;13.162;2023-02-16T09:15:02;101790.75;;;2.45;86.33
49835;BME280;35729;52.090;13.162;2023-02-16T09:17:30;101787.66;;;2.57;86.43
49835;BME280;35729;52.090;13.162;2023-02-16T09:20:00;101791.38;;;2.67;86.80
49835;BME280;35729;52.090;13.162;2023-02-16T09:22:28;101785.53;;;2.75;86.14
49835;BME280;35729;52.090;13.162;2023-02-16T09:24:59;101794.47;;;2.87;86.10
49835;BME280;35729;52.090;13.162;2023-02-16T09:27:28;101799.97;;;2.98;85.22
49835;BME280;35729;52.090;13.162;2023-02-16T09:29:57;101789.81;;;3.07;85.34
49835;BME280;35729;52.090;13.162;2023-02-16T09:32:27;101797.91;;;3.18;85.35
49835;BME280;35729;52.090;13.162;2023-02-16T09:34:55;101790.34;;;3.27;83.68
49835;BME280;35729;52.090;13.162;2023-02-16T09:37:24;101793.19;;;3.36;84.05
49835;BME280;35729;52.090;13.162;2023-02-16T09:39:52;101784.66;;;3.42;83.84
49835;BME280;35729;52.090;13.162;2023-02-16T09:42:31;101778.03;;;3.55;83.00
49835;BME280;35729;52.090;13.162;2023-02-16T09:45:06;101773.94;;;3.65;83.23
49835;BME280;35729;52.090;13.162;2023-02-16T09:47:39;101774.22;;;3.75;81.99
49835;BME280;35729;52.090;13.162;2023-02-16T09:50:13;101771.03;;;3.89;83.17
49835;BME280;35729;52.090;13.162;2023-02-16T09:52:49;101762.59;;;3.99;82.80
49835;BME280;35729;52.090;13.162;2023-02-16T09:55:19;101768.03;;;4.10;82.89
49835;BME280;35729;52.090;13.162;2023-02-16T09:57:59;101779.50;;;4.20;81.43
49835;BME280;35729;52.090;13.162;2023-02-16T10:00:42;101787.56;;;4.32;82.38
49835;BME280;35729;52.090;13.162;2023-02-16T10:03:31;101778.19;;;4.40;80.78
49835;BME280;35729;52.090;13.162;2023-02-16T10:06:07;101777.56;;;4.52;81.61
49835;BME280;35729;52.090;13.162;2023-02-16T10:08:45;101782.13;;;4.64;79.36
49835;BME280;35729;52.090;13.162;2023-02-16T10:11:21;101781.47;;;4.75;81.02
49835;BME280;35729;52.090;13.162;2023-02-16T10:14:15;101785.13;;;4.84;78.86
49835;BME280;35729;52.090;13.162;2023-02-16T10:16:50;101783.59;;;4.96;81.21
49835;BME280;35729;52.090;13.162;2023-02-16T10:19:21;101787.19;;;5.04;80.71
49835;BME280;35729;52.090;13.162;2023-02-16T10:21:54;101787.31;;;5.12;79.88
49835;BME280;35729;52.090;13.162;2023-02-16T10:24:25;101780.56;;;5.21;80.23
49835;BME280;35729;52.090;13.162;2023-02-16T10:27:01;101784.16;;;5.28;79.75
49835;BME280;35729;52.090;13.162;2023-02-16T10:29:34;101786.00;;;5.37;79.04
49835;BME280;35729;52.090;13.162;2023-02-16T10:32:14;101778.38;;;5.46;78.54
49835;BME280;35729;52.090;13.162;2023-02-16T10:34:47;101774.97;;;5.52;79.14
49835;BME280;35729;52.090;13.162;2023-02-16T10:37:28;101772.50;;;5.60;78.12
49835;BME280;35729;52.090;13.162;2023-02-16T10:40:19;101777.84;;;5.67;75.00
49835;BME280;35729;52.090;13.162;2023-02-16T10:42:57;101778.78;;;5.74;77.11
49835;BME280;35729;52.090;13.162;2023-02-16T10:45:33;101777.16;;;5.81;77.04
49835;BME280;35729;52.090;13.162;2023-02-16T10:48:04;101772.03;;;5.88;77.48
49835;BME280;35729;52.090;13.162;2023-02-16T10:50:38;101776.47;;;5.94;77.28
49835;BME280;35729;52.090;13.162;2023-02-16T10:53:12;101776.63;;;6.02;76.76
49835;BME280;35729;52.090;13.162;2023-02-16T10:55:41;101768.00;;;6.08;77.56
49835;BME280;35729;52.090;13.162;2023-02-16T10:58:16;101768.09;;;6.15;76.56
49835;BME280;35729;52.090;13.162;2023-02-16T11:00:52;101771.69;;;6.25;75.76
49835;BME280;35729;52.090;13.162;2023-02-16T11:03:27;101763.97;;;6.33;75.65
49835;BME280;35729;52.090;13.162;2023-02-16T11:06:12;101764.13;;;6.44;72.15
49835;BME280;35729;52.090;13.162;2023-02-16T11:08:46;101765.97;;;6.54;71.79
49835;BME280;35729;52.090;13.162;2023-02-16T11:11:16;101760.84;;;6.63;74.91
49835;BME280;35729;52.090;13.162;2023-02-16T11:13:48;101758.34;;;6.73;73.57
49835;BME280;35729;52.090;13.162;2023-02-16T11:16:22;101750.59;;;6.82;72.45
49835;BME280;35729;52.090;13.162;2023-02-16T11:18:56;101748.97;;;6.90;72.97
49835;BME280;35729;52.090;13.162;2023-02-16T11:21:41;101758.63;;;7.04;70.71
49835;BME280;35729;52.090;13.162;2023-02-16T11:24:13;101744.81;;;7.14;72.54
49835;BME280;35729;52.090;13.162;2023-02-16T11:27:02;101738.84;;;7.26;71.33
49835;BME280;35729;52.090;13.162;2023-02-16T11:29:32;101736.28;;;7.37;72.04
49835;BME280;35729;52.090;13.162;2023-02-16T11:32:08;101742.47;;;7.48;69.90
49835;BME280;35729;52.090;13.162;2023-02-16T11:34:40;101730.34;;;7.58;69.54
49835;BME280;35729;52.090;13.162;2023-02-16T11:37:14;101732.16;;;7.65;68.22
49835;BME280;35729;52.090;13.162;2023-02-16T11:39:49;101728.72;;;7.74;67.91
49835;BME280;35729;52.090;13.162;2023-02-16T11:42:26;101731.38;;;7.80;67.95
49835;BME280;35729;52.090;13.162;2023-02-16T11:44:58;101725.31;;;7.89;69.71
49835;BME280;35729;52.090;13.162;2023-02-16T11:47:31;101720.97;;;7.94;69.81
49835;BME280;35729;52.090;13.162;2023-02-16T11:50:18;101722.75;;;7.98;68.55
49835;BME280;35729;52.090;13.162;2023-02-16T11:52:48;101711.44;;;8.01;69.44
49835;BME280;35729;52.090;13.162;2023-02-16T11:55:20;101715.78;;;8.02;69.03
49835;BME280;35729;52.090;13.162;2023-02-16T11:57:51;101711.44;;;8.05;68.03
49835;BME280;35729;52.090;13.162;2023-02-16T12:00:23;101714.97;;;8.09;67.23
49835;BME280;35729;52.090;13.162;2023-02-16T12:03:11;101708.88;;;8.13;67.25
49835;BME280;35729;52.090;13.162;2023-02-16T12:05:51;101697.56;;;8.15;66.38
49835;BME280;35729;52.090;13.162;2023-02-16T12:08:32;101701.06;;;8.19;66.09
49835;BME280;35729;52.090;13.162;2023-02-16T12:11:21;101698.47;;;8.25;66.54
49835;BME280;35729;52.090;13.162;2023-02-16T12:14:02;101698.47;;;8.28;65.29
49835;BME280;35729;52.090;13.162;2023-02-16T12:16:43;101690.63;;;8.33;66.22
49835;BME280;35729;52.090;13.162;2023-02-16T12:19:26;101678.44;;;8.38;65.30
49835;BME280;35729;52.090;13.162;2023-02-16T12:22:00;101682.00;;;8.48;65.90
49835;BME280;35729;52.090;13.162;2023-02-16T12:24:40;101683.72;;;8.55;66.20
49835;BME280;35729;52.090;13.162;2023-02-16T12:27:17;101680.25;;;8.62;66.63
49835;BME280;35729;52.090;13.162;2023-02-16T12:29:53;101680.25;;;8.70;65.74
49835;BME280;35729;52.090;13.162;2023-02-16T12:32:33;101675.03;;;8.79;65.47
49835;BME280;35729;52.090;13.162;2023-02-16T12:35:21;101679.41;;;8.88;62.91
49835;BME280;35729;52.090;13.162;2023-02-16T12:38:08;101668.94;;;8.98;64.25
49835;BME280;35729;52.090;13.162;2023-02-16T12:40:49;101672.41;;;9.06;63.76
49835;BME280;35729;52.090;13.162;2023-02-16T12:43:40;101666.31;;;9.15;61.71
49835;BME280;35729;52.090;13.162;2023-02-16T12:46:13;101658.44;;;9.25;64.37
49835;BME280;35729;52.090;13.162;2023-02-16T12:48:48;101661.06;;;9.33;64.13
49835;BME280;35729;52.090;13.162;2023-02-16T12:51:22;101655.81;;;9.39;61.32
49835;BME280;35729;52.090;13.162;2023-02-16T12:53:58;101656.66;;;9.49;61.79
49835;BME280;35729;52.090;13.162;2023-02-16T12:56:31;101661.84;;;9.61;63.10
49835;BME280;35729;52.090;13.162;2023-02-16T12:59:11;101661.81;;;9.74;62.89
49835;BME280;35729;52.090;13.162;2023-02-16T13:01:43;101660.00;;;9.90;62.80
49835;BME280;35729;52.090;13.162;2023-02-16T13:04:18;101664.31;;;10.02;62.51
49835;BME280;35729;52.090;13.162;2023-02-16T13:06:56;101664.22;;;10.17;59.84
49835;BME280;35729;52.090;13.162;2023-02-16T13:09:35;101660.66;;;10.34;58.17
49835;BME280;35729;52.090;13.162;2023-02-16T13:12:09;101657.09;;;10.50;58.79
49835;BME280;35729;52.090;13.162;2023-02-16T13:14:44;101646.44;;;10.69;60.68
49835;BME280;35729;52.090;13.162;2023-02-16T13:17:24;101646.25;;;10.90;58.33
49835;BME280;35729;52.090;13.162;2023-02-16T13:19:56;101645.22;;;11.10;58.37
49835;BME280;35729;52.090;13.162;2023-02-16T13:22:39;101648.53;;;11.31;55.06